sim
Sign-in with your pilot id or email,
or register
Callsign
Passwort

Schedule Details

Flight Number: EWG1700 (1)
Departure: Munich Airport (EDDM) at 16:20
Arrival: Thessaloniki International Airport (LGTS) at 18:20
Route: Eurowings Passenger Schedule. Enter filed route here before submitting Pirep.

Weather Information
Getting current METAR information for EDDM 211850Z 09004KT CAVOK 17/13 Q1028 NOSIG
Getting current METAR information for LGTS 211850Z 11004KT CAVOK 27/13 Q1017 NOSIG

Schedule Frequency

Route Map